Time;durP1;ratioP1;P1;durP2;ratioP2;P2;SDS_P1;SDS_P2;PMS_P1;PMS_P2;Temp;Humidity;BMP_temperature;BMP_pressure;BME280_temperature;BME280_humidity;BME280_pressure;Samples;Min_cycle;Max_cycle;Signal;HPM_P1;HPM_P2
2020/12/30 00:02:13;;;;;;;5.55;2.80;;;4.80;85.90;;;;;;6347625;28;20040;-78
2020/12/30 00:05:13;;;;;;;5.43;3.47;;;4.90;87.60;;;;;;6347650;28;20431;-77
2020/12/30 00:08:14;;;;;;;5.40;2.92;;;4.70;88.50;;;;;;6312886;28;20023;-77
2020/12/30 00:11:18;;;;;;;5.78;3.20;;;4.80;88.70;;;;;;6312576;28;20034;-78
2020/12/30 00:14:18;;;;;;;5.43;2.53;;;4.80;88.80;;;;;;6347461;28;20035;-78
2020/12/30 00:17:19;;;;;;;4.20;2.25;;;4.30;88.10;;;;;;6346834;28;20458;-76
2020/12/30 00:20:22;;;;;;;3.38;2.20;;;5.10;89.40;;;;;;6329362;28;20081;-77
2020/12/30 00:23:24;;;;;;;4.88;3.05;;;4.70;87.40;;;;;;6329722;28;20031;-77
2020/12/30 00:26:24;;;;;;;6.78;4.18;;;4.60;89.80;;;;;;6329232;28;20031;-77
2020/12/30 00:29:25;;;;;;;4.45;2.30;;;4.30;90.10;;;;;;6312504;28;20377;-77
2020/12/30 00:32:25;;;;;;;5.20;2.55;;;4.30;90.40;;;;;;6347331;28;20074;-77
2020/12/30 00:35:26;;;;;;;6.05;2.25;;;4.30;90.70;;;;;;6329122;28;20032;-77
2020/12/30 00:38:27;;;;;;;4.55;2.10;;;4.40;90.40;;;;;;6347012;28;20023;-77
2020/12/30 00:41:27;;;;;;;3.83;2.10;;;4.40;90.80;;;;;;6329097;28;20099;-77
2020/12/30 00:44:28;;;;;;;4.63;2.22;;;4.10;90.90;;;;;;6347412;28;20239;-77
2020/12/30 00:47:28;;;;;;;4.53;2.58;;;4.10;90.90;;;;;;6329546;28;20456;-77
2020/12/30 00:50:29;;;;;;;5.50;2.00;;;4.50;91.40;;;;;;6347290;28;20350;-77
2020/12/30 00:53:29;;;;;;;4.55;2.28;;;4.20;91.30;;;;;;6347077;28;20031;-77
2020/12/30 00:56:30;;;;;;;2.58;1.95;;;4.00;91.30;;;;;;6347023;28;20023;-76
2020/12/30 00:59:31;;;;;;;2.78;1.90;;;4.00;91.50;;;;;;6328305;28;20112;-76
2020/12/30 01:02:31;;;;;;;2.35;1.90;;;3.90;90.40;;;;;;6311993;28;20385;-77
2020/12/30 01:05:32;;;;;;;6.38;2.40;;;4.10;90.90;;;;;;6346854;28;20048;-77
2020/12/30 01:08:32;;;;;;;5.53;2.10;;;4.10;90.90;;;;;;6347103;28;20030;-77
2020/12/30 01:11:33;;;;;;;3.22;2.15;;;4.40;91.70;;;;;;6328855;28;20015;-77
2020/12/30 01:14:34;;;;;;;5.68;2.55;;;4.00;91.90;;;;;;6328899;28;20032;-76
2020/12/30 01:17:34;;;;;;;5.65;2.58;;;4.70;92.00;;;;;;6328544;28;20019;-77
2020/12/30 01:20:35;;;;;;;3.83;2.20;;;4.00;91.80;;;;;;6311804;28;20438;-77
2020/12/30 01:23:35;;;;;;;4.75;2.10;;;4.30;91.70;;;;;;6328513;28;20110;-77
2020/12/30 01:26:36;;;;;;;5.13;2.53;;;4.00;91.20;;;;;;6328583;28;20032;-77
2020/12/30 01:29:37;;;;;;;4.60;2.25;;;4.60;91.80;;;;;;6331884;28;20466;-77
2020/12/30 01:32:37;;;;;;;4.15;2.30;;;4.20;91.40;;;;;;6351430;28;20038;-76
2020/12/30 01:35:38;;;;;;;4.95;2.30;;;4.50;91.50;;;;;;6351340;28;20095;-77
2020/12/30 01:38:38;;;;;;;2.20;2.00;;;4.40;91.40;;;;;;6332840;28;20028;-77
2020/12/30 01:41:39;;;;;;;4.65;2.00;;;4.30;91.80;;;;;;6351418;28;20055;-77
2020/12/30 01:44:39;;;;;;;6.50;2.10;;;4.40;92.10;;;;;;6315935;28;20453;-76
2020/12/30 01:47:41;;;;;;;3.53;2.38;;;4.60;92.20;;;;;;6351154;28;20451;-76
2020/12/30 01:50:42;;;;;;;4.32;2.25;;;4.50;92.30;;;;;;6332796;28;20019;-76
2020/12/30 01:53:42;;;;;;;3.83;1.75;;;4.20;92.00;;;;;;6332475;28;20369;-77
2020/12/30 01:56:43;;;;;;;3.80;2.25;;;4.30;92.10;;;;;;6350805;28;20052;-77
2020/12/30 01:59:44;;;;;;;5.72;3.03;;;3.90;99.80;;;;;;6315134;28;20023;-77
2020/12/30 02:02:48;;;;;;;5.05;2.00;;;4.60;92.40;;;;;;6315760;28;20030;-77
2020/12/30 02:05:48;;;;;;;3.03;2.10;;;4.20;92.10;;;;;;6350837;28;20034;-77
2020/12/30 02:08:49;;;;;;;2.33;1.90;;;4.70;92.60;;;;;;6350711;28;20032;-76
2020/12/30 02:11:49;;;;;;;3.55;2.20;;;4.50;92.40;;;;;;6332219;28;20022;-77
2020/12/30 02:14:50;;;;;;;3.17;2.08;;;4.10;91.90;;;;;;6315260;28;20427;-77
2020/12/30 02:17:51;;;;;;;5.60;2.33;;;4.50;92.00;;;;;;6350327;28;20070;-78
2020/12/30 02:20:51;;;;;;;3.97;1.85;;;4.70;92.20;;;;;;6315101;28;20513;-77
2020/12/30 02:23:52;;;;;;;4.75;2.83;;;4.30;92.10;;;;;;6332086;28;20027;-77
2020/12/30 02:26:53;;;;;;;6.07;2.35;;;4.60;92.10;;;;;;6331849;28;20043;-77
2020/12/30 02:29:54;;;;;;;3.30;2.42;;;4.40;92.50;;;;;;6350220;28;20052;-77
2020/12/30 02:32:55;;;;;;;4.00;2.28;;;4.20;92.60;;;;;;6314994;28;20491;-77
2020/12/30 02:35:55;;;;;;;5.50;2.33;;;4.00;92.40;;;;;;6331812;28;20073;-77
2020/12/30 02:38:56;;;;;;;4.20;2.63;;;3.70;92.50;;;;;;6349526;28;20105;-76
2020/12/30 02:41:56;;;;;;;6.47;3.70;;;3.70;99.90;;;;;;6330862;28;20027;-77
2020/12/30 02:45:02;;;;;;;3.47;2.35;;;3.70;93.20;;;;;;6331282;28;20026;-77
2020/12/30 02:48:03;;;;;;;6.43;2.58;;;4.40;93.60;;;;;;6314929;28;20065;-77
2020/12/30 02:51:03;;;;;;;6.38;2.50;;;3.60;99.90;;;;;;6331476;28;20016;-77
2020/12/30 02:54:04;;;;;;;4.82;2.53;;;3.10;99.90;;;;;;6331056;28;20058;-76
2020/12/30 02:57:05;;;;;;;6.07;3.33;;;3.60;99.90;;;;;;6314426;28;20020;-77
2020/12/30 03:00:05;;;;;;;3.17;2.35;;;3.10;99.90;;;;;;6349009;28;20044;-76
2020/12/30 03:03:06;;;;;;;4.20;2.22;;;3.20;99.90;;;;;;6331084;28;20080;-77
2020/12/30 03:06:07;;;;;;;6.72;2.85;;;3.30;99.90;;;;;;6314443;28;20361;-76
2020/12/30 03:09:08;;;;;;;4.43;2.10;;;3.20;99.90;;;;;;6331057;28;20031;-77
2020/12/30 03:12:08;;;;;;;3.92;2.42;;;3.30;99.90;;;;;;6330866;28;20476;-77
2020/12/30 03:15:09;;;;;;;6.43;2.55;;;3.00;99.90;;;;;;6313991;28;20468;-76
2020/12/30 03:18:10;;;;;;;6.82;2.70;;;2.80;99.90;;;;;;6330733;28;20063;-77
2020/12/30 03:21:10;;;;;;;5.72;2.60;;;2.90;99.90;;;;;;6330399;28;20020;-77
2020/12/30 03:24:11;;;;;;;3.05;2.40;;;3.10;99.90;;;;;;6348999;28;20024;-77
2020/12/30 03:27:11;;;;;;;7.47;2.38;;;3.30;99.90;;;;;;6330952;28;20023;-77
2020/12/30 03:30:12;;;;;;;4.63;2.47;;;3.10;99.90;;;;;;6330472;28;20031;-77
2020/12/30 03:33:13;;;;;;;7.63;2.83;;;;;;;;;;6348293;28;20484;-77
2020/12/30 03:36:13;;;;;;;3.53;2.67;;;2.70;98.50;;;;;;6330286;28;20016;-76
2020/12/30 03:39:14;;;;;;;3.45;2.40;;;3.30;99.90;;;;;;6330349;28;20106;-76
2020/12/30 03:42:15;;;;;;;6.72;2.63;;;3.40;99.90;;;;;;6348242;28;20035;-77
2020/12/30 03:45:15;;;;;;;7.57;2.67;;;3.30;94.50;;;;;;6330100;28;20020;-76
2020/12/30 03:48:16;;;;;;;3.10;2.30;;;3.20;94.50;;;;;;6329907;28;20473;-77
2020/12/30 03:51:16;;;;;;;5.03;2.30;;;4.20;94.90;;;;;;6329743;28;20023;-76
2020/12/30 03:54:17;;;;;;;5.82;2.85;;;3.10;94.80;;;;;;6329641;28;20067;-76
2020/12/30 03:57:17;;;;;;;14.27;6.25;;;3.20;95.50;;;;;;6348103;28;20027;-77
2020/12/30 04:00:18;;;;;;;10.82;5.32;;;3.70;95.70;;;;;;6312696;28;20119;-76
2020/12/30 04:03:19;;;;;;;7.05;3.80;;;3.40;95.50;;;;;;6329581;28;20031;-77
2020/12/30 04:06:19;;;;;;;5.20;3.08;;;3.80;95.50;;;;;;6329624;28;20372;-76
2020/12/30 04:09:20;;;;;;;4.30;2.45;;;2.90;95.30;;;;;;6329785;28;20051;-78
2020/12/30 04:12:21;;;;;;;4.18;2.50;;;3.40;95.50;;;;;;6347527;28;20020;-77
2020/12/30 04:15:21;;;;;;;5.50;2.75;;;2.90;95.40;;;;;;6295606;28;20023;-76
2020/12/30 04:18:22;;;;;;;2.78;2.55;;;2.90;95.40;;;;;;6347495;28;20505;-76
2020/12/30 04:21:23;;;;;;;3.50;2.22;;;3.50;95.50;;;;;;6347625;28;20411;-76
2020/12/30 04:24:23;;;;;;;5.80;4.38;;;3.50;95.70;;;;;;6329398;28;20441;-78
2020/12/30 04:27:24;;;;;;;6.43;3.30;;;3.00;95.90;;;;;;6329037;28;20081;-76
2020/12/30 04:30:25;;;;;;;4.55;2.67;;;2.80;96.00;;;;;;6312470;28;20015;-76
2020/12/30 04:33:25;;;;;;;5.03;2.90;;;2.90;95.90;;;;;;6347448;28;20046;-78
2020/12/30 04:36:26;;;;;;;4.60;3.00;;;3.20;95.80;;;;;;6329446;28;20445;-76
2020/12/30 04:39:26;;;;;;;4.90;2.85;;;3.50;95.80;;;;;;6347636;28;20020;-78
2020/12/30 04:42:32;;;;;;;4.00;2.50;;;3.40;95.50;;;;;;6347131;28;20023;-78
2020/12/30 04:45:33;;;;;;;5.18;2.72;;;3.50;95.70;;;;;;6312691;28;20138;-77
2020/12/30 04:48:34;;;;;;;6.68;2.90;;;3.70;95.70;;;;;;6312397;28;20024;-77
2020/12/30 04:51:35;;;;;;;5.60;3.33;;;3.40;95.80;;;;;;6312328;28;20024;-76
2020/12/30 04:54:37;;;;;;;4.55;2.85;;;3.20;95.80;;;;;;6312328;28;20036;-77
2020/12/30 04:58:10;;;;;;;5.30;2.75;;;3.00;95.70;;;;;;6347081;28;20047;-77
2020/12/30 05:01:12;;;;;;;3.47;3.00;;;3.20;95.90;;;;;;6274355;28;20036;-77
2020/12/30 05:04:12;;;;;;;4.57;3.13;;;3.20;96.10;;;;;;6298289;28;20020;-77
2020/12/30 05:07:14;;;;;;;4.63;3.28;;;3.30;96.10;;;;;;6300609;28;20039;-76
2020/12/30 05:10:15;;;;;;;5.65;3.05;;;3.40;96.20;;;;;;6300136;28;20024;-76
2020/12/30 05:13:15;;;;;;;3.83;2.58;;;3.10;96.30;;;;;;6300402;28;20082;-76
2020/12/30 05:16:16;;;;;;;7.05;2.80;;;3.10;96.40;;;;;;6300311;28;20032;-76
2020/12/30 05:19:16;;;;;;;4.72;2.95;;;3.30;96.30;;;;;;6301110;28;20089;-77
2020/12/30 05:22:20;;;;;;;4.10;3.03;;;2.50;99.90;;;;;;6300167;28;20016;-76
2020/12/30 05:25:27;;;;;;;7.22;3.38;;;2.90;96.20;;;;;;6301025;28;20427;-77
2020/12/30 05:28:27;;;;;;;9.68;4.75;;;2.40;99.90;;;;;;6301325;28;20020;-76
2020/12/30 05:31:28;;;;;;;7.15;3.65;;;2.70;96.00;;;;;;6299643;28;20028;-77
2020/12/30 05:34:30;;;;;;;5.30;2.97;;;3.10;96.00;;;;;;6299733;28;20381;-77
2020/12/30 05:37:35;;;;;;;7.50;5.32;;;3.30;95.80;;;;;;6300350;28;20048;-76
2020/12/30 05:40:35;;;;;;;5.43;3.22;;;3.10;95.30;;;;;;6301353;28;20027;-77
2020/12/30 05:43:36;;;;;;;9.32;3.28;;;3.20;95.30;;;;;;6299876;28;20362;-76
2020/12/30 05:46:36;;;;;;;4.88;2.80;;;3.20;95.60;;;;;;6299662;28;20103;-77
2020/12/30 05:49:37;;;;;;;5.70;3.10;;;3.20;95.30;;;;;;6300679;28;20035;-78
2020/12/30 05:52:37;;;;;;;6.05;3.05;;;3.80;95.50;;;;;;6300943;28;20028;-77
2020/12/30 05:55:38;;;;;;;4.15;2.72;;;3.80;95.60;;;;;;6300668;28;20070;-76
2020/12/30 05:58:42;;;;;;;5.57;3.08;;;3.10;95.50;;;;;;6299482;28;20032;-77
2020/12/30 06:01:44;;;;;;;5.43;3.13;;;3.70;95.80;;;;;;6299095;28;20097;-76
2020/12/30 06:04:45;;;;;;;6.07;3.67;;;3.10;95.40;;;;;;6282848;28;20031;-76
2020/12/30 06:07:47;;;;;;;5.93;3.60;;;3.20;95.60;;;;;;6300395;28;20095;-76
2020/12/30 06:10:47;;;;;;;9.57;6.33;;;3.80;95.80;;;;;;6299176;28;20021;-76
2020/12/30 06:13:48;;;;;;;4.80;3.42;;;2.90;95.60;;;;;;6298807;28;20428;-76
2020/12/30 06:16:49;;;;;;;16.50;9.07;;;;;;;;;;6298367;28;20032;-76
2020/12/30 06:19:49;;;;;;;6.32;3.35;;;2.50;93.80;;;;;;6298892;28;20105;-76
2020/12/30 06:23:09;;;;;;;4.65;3.03;;;3.10;95.50;;;;;;6298878;28;20036;-76
2020/12/30 06:26:11;;;;;;;6.07;3.47;;;2.60;94.20;;;;;;6282049;28;20107;-75
2020/12/30 06:29:12;;;;;;;6.88;3.17;;;3.30;95.60;;;;;;6282241;28;20552;-77
2020/12/30 06:32:27;;;;;;;6.22;3.45;;;3.80;95.30;;;;;;6299913;28;20020;-76
2020/12/30 06:35:28;;;;;;;6.40;3.40;;;2.60;93.70;;;;;;6299033;28;20032;-75
2020/12/30 06:38:30;;;;;;;6.05;3.05;;;3.90;95.40;;;;;;6299989;28;20103;-75
2020/12/30 06:41:53;;;;;;;7.35;3.40;;;3.10;95.20;;;;;;6298668;28;20021;-76
2020/12/30 06:44:54;;;;;;;24.83;11.82;;;2.70;93.60;;;;;;6298536;28;20461;-75
2020/12/30 06:48:01;;;;;;;8.10;4.13;;;3.80;95.00;;;;;;6299455;28;20057;-76
2020/12/30 06:51:15;;;;;;;48.13;18.05;;;2.70;93.40;;;;;;6298328;28;20036;-77
2020/12/30 06:54:16;;;;;;;9.43;3.90;;;3.40;95.10;;;;;;6281721;28;20398;-76
2020/12/30 06:57:36;;;;;;;11.27;5.22;;;2.70;99.90;;;;;;6300202;28;20131;-76
2020/12/30 07:00:38;;;;;;;79.80;26.90;;;3.50;95.30;;;;;;6313540;28;20474;-76
2020/12/30 07:03:39;;;;;;;33.17;15.65;;;2.80;99.90;;;;;;6331506;28;20070;-76
2020/12/30 07:06:49;;;;;;;5.15;3.05;;;2.70;99.90;;;;;;6351896;27;20020;-76
2020/12/30 07:09:49;;;;;;;5.25;3.03;;;3.40;94.30;;;;;;6375120;27;20034;-76
2020/12/30 07:12:50;;;;;;;6.18;3.35;;;2.90;99.90;;;;;;6338784;27;20474;-76
2020/12/30 07:16:26;;;;;;;5.97;3.60;;;2.80;99.90;;;;;;6336530;28;20097;-76
2020/12/30 07:19:31;;;;;;;6.85;3.90;;;2.80;99.90;;;;;;6301625;28;20035;-76
2020/12/30 07:22:32;;;;;;;6.70;4.05;;;;;;;;;;6314195;28;20015;-76
2020/12/30 07:25:32;;;;;;;6.35;3.47;;;2.70;99.20;;;;;;6329880;28;20016;-76
2020/12/30 07:28:33;;;;;;;7.00;3.70;;;2.70;99.90;;;;;;6330637;28;20100;-74
2020/12/30 07:31:34;;;;;;;7.38;3.58;;;2.70;99.90;;;;;;6349117;28;20024;-75
2020/12/30 07:34:39;;;;;;;8.75;4.53;;;3.20;99.90;;;;;;6330516;28;20034;-77
2020/12/30 07:37:40;;;;;;;8.82;5.57;;;3.60;94.80;;;;;;6348953;28;20548;-76
2020/12/30 07:40:41;;;;;;;11.55;4.32;;;3.60;94.40;;;;;;6313146;28;20027;-75
2020/12/30 07:43:48;;;;;;;4.45;2.83;;;4.20;99.80;;;;;;6330253;28;20027;-77
2020/12/30 07:46:49;;;;;;;5.22;2.88;;;3.80;93.70;;;;;;6330438;28;20520;-76
2020/12/30 07:49:50;;;;;;;3.63;2.72;;;4.00;93.80;;;;;;6330351;28;20019;-76
2020/12/30 07:52:51;;;;;;;6.85;3.33;;;3.90;93.40;;;;;;6348349;28;20045;-76
2020/12/30 07:55:52;;;;;;;6.55;3.42;;;4.20;93.30;;;;;;6330382;28;20028;-76
2020/12/30 07:58:52;;;;;;;7.82;3.00;;;4.00;93.20;;;;;;6348040;28;20031;-78
2020/12/30 08:02:04;;;;;;;4.93;3.10;;;3.40;92.80;;;;;;6303108;28;20044;-76
2020/12/30 08:05:05;;;;;;;5.68;2.90;;;3.40;91.50;;;;;;6296663;28;20078;-77
2020/12/30 08:08:09;;;;;;;6.82;4.90;;;3.80;93.10;;;;;;6297084;28;20041;-77
2020/12/30 08:11:09;;;;;;;6.22;3.45;;;4.00;93.20;;;;;;6295837;28;20059;-75
2020/12/30 08:14:11;;;;;;;6.45;3.10;;;3.90;93.10;;;;;;6299619;28;20028;-75
2020/12/30 08:17:12;;;;;;;5.60;3.90;;;3.90;93.70;;;;;;6304892;28;20059;-75
2020/12/30 08:20:14;;;;;;;6.70;6.03;;;4.40;93.20;;;;;;6322751;28;20094;-76
2020/12/30 08:23:18;;;;;;;5.53;3.45;;;3.80;92.60;;;;;;6321100;28;20022;-76
2020/12/30 08:26:19;;;;;;;5.88;3.70;;;4.60;91.10;;;;;;6321958;28;20397;-77
2020/12/30 08:29:20;;;;;;;9.43;3.70;;;4.50;91.40;;;;;;6320819;28;20032;-75
2020/12/30 08:32:48;;;;;;;5.97;3.72;;;4.60;91.40;;;;;;6322261;28;20050;-77
2020/12/30 08:35:52;;;;;;;6.25;3.78;;;4.30;90.30;;;;;;6321318;28;20474;-76
2020/12/30 08:38:53;;;;;;;4.35;3.55;;;4.30;91.70;;;;;;6320146;28;20027;-78
2020/12/30 08:41:54;;;;;;;5.28;4.78;;;4.20;99.90;;;;;;6321011;28;20020;-76
2020/12/30 08:44:59;;;;;;;7.10;4.18;;;4.90;92.80;;;;;;6320747;28;20028;-78
2020/12/30 08:48:16;;;;;;;5.53;3.72;;;4.40;92.40;;;;;;6320742;28;20458;-75
2020/12/30 08:51:30;;;;;;;5.78;3.60;;;5.00;91.70;;;;;;6322241;28;20115;-77
2020/12/30 08:54:31;;;;;;;6.30;2.95;;;4.40;90.80;;;;;;6320612;28;20035;-77
2020/12/30 08:57:31;;;;;;;8.93;5.78;;;4.70;90.60;;;;;;6320744;28;20064;-77
2020/12/30 09:00:36;;;;;;;7.38;3.85;;;4.40;90.50;;;;;;6335848;27;20043;-78
2020/12/30 09:03:36;;;;;;;6.95;3.58;;;4.50;90.30;;;;;;6338865;28;20024;-77
2020/12/30 09:06:37;;;;;;;3.25;2.28;;;5.00;90.60;;;;;;6337191;28;20038;-73
2020/12/30 09:09:37;;;;;;;4.47;2.53;;;5.30;86.70;;;;;;6354246;28;20107;-73
2020/12/30 09:12:39;;;;;;;4.45;2.92;;;5.10;90.00;;;;;;6372330;28;20023;-73
2020/12/30 09:15:40;;;;;;;6.05;2.88;;;6.00;99.90;;;;;;6373077;28;20102;-76
2020/12/30 09:18:41;;;;;;;3.55;2.08;;;6.10;99.90;;;;;;6372734;28;20028;-75
2020/12/30 09:21:41;;;;;;;2.50;1.77;;;6.20;87.80;;;;;;6372286;27;20023;-75
2020/12/30 09:24:43;;;;;;;3.83;2.00;;;6.40;93.40;;;;;;6372180;27;20039;-75
2020/12/30 09:27:43;;;;;;;4.00;2.53;;;5.80;93.40;;;;;;6372376;27;20030;-75
2020/12/30 09:31:06;;;;;;;3.33;2.40;;;5.80;94.10;;;;;;6372276;27;20019;-76
2020/12/30 09:34:19;;;;;;;2.60;1.88;;;5.50;92.20;;;;;;6356281;27;20031;-75
2020/12/30 09:37:21;;;;;;;;;;;5.60;84.20;;;;;;6373378;28;20027;-75
2020/12/30 09:40:21;;;;;;;1.30;1.25;;;5.80;93.80;;;;;;6372091;27;19899;-75
2020/12/30 09:43:24;;;;;;;3.03;1.50;;;6.00;93.10;;;;;;6371364;28;20352;-75
2020/12/30 09:46:25;;;;;;;;;;;5.50;93.00;;;;;;6371571;28;20027;-75
2020/12/30 09:49:26;;;;;;;1.70;1.60;;;;;;;;;;6372643;27;19906;-77
2020/12/30 09:52:26;;;;;;;1.88;1.70;;;5.30;92.50;;;;;;6339441;27;20621;-78
2020/12/30 09:55:27;;;;;;;2.60;2.35;;;;;;;;;;6340303;27;20075;-78
2020/12/30 09:58:28;;;;;;;2.40;1.60;;;4.90;92.60;;;;;;6358091;27;20007;-77
2020/12/30 10:01:30;;;;;;;3.78;3.40;;;5.30;89.60;;;;;;6358250;27;20404;-79
2020/12/30 10:04:31;;;;;;;1.85;1.70;;;5.30;85.70;;;;;;6341933;27;20449;-79
2020/12/30 10:07:31;;;;;;;2.20;1.58;;;5.30;87.80;;;;;;6376333;27;20127;-77
2020/12/30 10:10:32;;;;;;;1.30;1.30;;;5.20;87.80;;;;;;6358360;27;20103;-77
2020/12/30 10:13:33;;;;;;;3.35;2.70;;;5.30;87.50;;;;;;6358073;27;20054;-77
2020/12/30 10:16:33;;;;;;;7.00;4.65;;;5.30;87.40;;;;;;6341200;27;20042;-78
2020/12/30 10:19:34;;;;;;;3.17;2.88;;;5.20;88.40;;;;;;6340831;27;20055;-78
2020/12/30 10:22:36;;;;;;;3.13;1.92;;;5.10;88.40;;;;;;6357887;27;20027;-77
2020/12/30 10:25:36;;;;;;;1.50;1.40;;;4.90;88.40;;;;;;6357903;27;20110;-77
2020/12/30 10:28:37;;;;;;;4.35;3.00;;;5.00;89.10;;;;;;6340659;27;20015;-77
2020/12/30 10:31:38;;;;;;;3.47;1.75;;;5.20;87.90;;;;;;6358179;27;20027;-78
2020/12/30 10:34:38;;;;;;;3.78;2.40;;;5.30;89.10;;;;;;6323325;27;20849;-79
2020/12/30 10:37:39;;;;;;;4.10;2.72;;;5.20;89.40;;;;;;6357341;27;20023;-77
2020/12/30 10:40:40;;;;;;;2.53;1.67;;;5.30;89.10;;;;;;6340139;27;20361;-77
2020/12/30 10:43:40;;;;;;;3.45;2.80;;;5.30;88.90;;;;;;6357129;27;20373;-77
2020/12/30 10:46:41;;;;;;;2.85;2.00;;;5.40;87.90;;;;;;6356982;27;20364;-78
2020/12/30 10:49:42;;;;;;;4.15;2.58;;;5.40;88.00;;;;;;6340090;27;20026;-77
2020/12/30 10:52:42;;;;;;;1.60;1.50;;;5.30;87.20;;;;;;6356891;27;20067;-79
2020/12/30 10:55:43;;;;;;;2.75;2.40;;;5.60;88.00;;;;;;6375216;27;20027;-77
2020/12/30 10:58:43;;;;;;;2.10;2.00;;;5.40;87.00;;;;;;6339652;27;20037;-77
2020/12/30 11:01:44;;;;;;;3.72;1.80;;;5.40;87.30;;;;;;6374540;27;20051;-77
2020/12/30 11:04:45;;;;;;;2.55;2.03;;;5.40;86.90;;;;;;6339684;27;20778;-80
2020/12/30 11:07:45;;;;;;;2.10;1.90;;;5.60;86.90;;;;;;6356435;27;20025;-79
2020/12/30 11:10:46;;;;;;;2.88;2.35;;;5.40;86.40;;;;;;6375225;27;20365;-77
2020/12/30 11:13:46;;;;;;;4.82;3.35;;;5.10;86.60;;;;;;6356227;27;20091;-78
2020/12/30 11:16:48;;;;;;;9.18;5.93;;;5.50;86.80;;;;;;6339625;27;20019;-79
2020/12/30 11:19:49;;;;;;;3.35;2.50;;;5.30;85.20;;;;;;6356371;27;20035;-78
2020/12/30 11:22:50;;;;;;;2.30;2.10;;;5.20;95.70;;;;;;6356451;27;20064;-77
2020/12/30 11:25:51;;;;;;;2.58;1.83;;;5.50;86.30;;;;;;6356194;27;20102;-77
2020/12/30 11:28:55;;;;;;;2.30;2.10;;;5.10;95.20;;;;;;6356979;27;20456;-77
2020/12/30 11:31:57;;;;;;;2.55;2.35;;;5.50;85.80;;;;;;6322650;27;20535;-78
2020/12/30 11:34:57;;;;;;;2.47;2.05;;;5.40;84.80;;;;;;6374033;27;20031;-79
2020/12/30 11:37:58;;;;;;;2.78;2.50;;;5.80;84.40;;;;;;6374424;27;20079;-77
2020/12/30 11:40:59;;;;;;;4.13;2.20;;;5.40;84.40;;;;;;6356190;27;20498;-78
2020/12/30 11:43:59;;;;;;;2.65;2.30;;;5.50;85.50;;;;;;6355875;27;20517;-77
2020/12/30 11:47:00;;;;;;;2.75;2.40;;;6.00;85.00;;;;;;6355836;27;20034;-78
2020/12/30 11:50:00;;;;;;;2.78;2.50;;;5.70;84.10;;;;;;6355773;27;20384;-77
2020/12/30 11:53:01;;;;;;;4.45;3.55;;;5.90;83.80;;;;;;6355217;27;20035;-79
2020/12/30 11:56:02;;;;;;;3.35;3.05;;;6.00;82.70;;;;;;6373959;27;20046;-78
2020/12/30 11:59:02;;;;;;;12.13;11.23;;;6.20;81.70;;;;;;6373740;27;20031;-77
2020/12/30 12:02:03;;;;;;;2.50;2.30;;;6.50;83.10;;;;;;6338217;27;20064;-79
2020/12/30 12:05:04;;;;;;;3.53;2.60;;;6.60;81.90;;;;;;6321428;27;20019;-78
2020/12/30 12:08:04;;;;;;;2.25;1.77;;;6.50;81.70;;;;;;6338168;27;20084;-78
2020/12/30 12:11:05;;;;;;;2.10;1.90;;;6.80;80.80;;;;;;6373828;27;20084;-78
2020/12/30 12:14:06;;;;;;;1.77;1.67;;;6.80;81.50;;;;;;6355306;27;20035;-80
2020/12/30 12:17:06;;;;;;;2.50;1.58;;;7.20;81.50;;;;;;6355434;27;20083;-78
2020/12/30 12:20:07;;;;;;;2.25;2.05;;;7.80;80.10;;;;;;6354885;27;20147;-78
2020/12/30 12:23:07;;;;;;;2.42;2.22;;;8.30;90.60;;;;;;6354974;27;20027;-78
2020/12/30 12:26:08;;;;;;;1.85;1.75;;;8.50;74.50;;;;;;6355225;27;20114;-79
2020/12/30 12:29:39;;;;;;;1.65;1.55;;;8.80;73.80;;;;;;6373358;27;20052;-77
2020/12/30 12:32:39;;;;;;;5.15;1.95;;;8.90;71.30;;;;;;6339487;27;20023;-77
2020/12/30 12:35:40;;;;;;;2.83;2.50;;;9.00;71.30;;;;;;6337920;28;20026;-79
2020/12/30 12:38:41;;;;;;;3.42;2.70;;;9.00;71.50;;;;;;6372899;27;20106;-80
2020/12/30 12:41:42;;;;;;;2.33;1.70;;;9.10;69.80;;;;;;6337723;27;20110;-80
2020/12/30 12:44:42;;;;;;;1.83;1.73;;;8.80;72.00;;;;;;6372981;28;20642;-78
2020/12/30 12:47:43;;;;;;;2.92;1.98;;;8.50;71.60;;;;;;6320604;28;20023;-80
2020/12/30 12:50:43;;;;;;;2.30;2.10;;;8.30;73.90;;;;;;6354456;28;20063;-80
2020/12/30 12:53:44;;;;;;;3.85;2.28;;;8.20;74.40;;;;;;6337462;28;20046;-78
2020/12/30 12:56:44;;;;;;;4.00;2.47;;;8.20;74.40;;;;;;6372860;27;20020;-79
2020/12/30 12:59:45;;;;;;;3.08;2.17;;;8.70;75.10;;;;;;6354473;28;20055;-78
2020/12/30 13:02:46;;;;;;;2.92;2.63;;;8.30;74.50;;;;;;6355312;28;20417;-78
2020/12/30 13:05:46;;;;;;;3.05;2.38;;;7.40;89.90;;;;;;6372645;28;20019;-78
2020/12/30 13:08:47;;;;;;;2.92;2.40;;;7.40;90.20;;;;;;6319776;27;20034;-78
2020/12/30 13:11:49;;;;;;;12.13;7.85;;;6.80;91.00;;;;;;6337303;28;20038;-77
2020/12/30 13:14:49;;;;;;;15.93;9.82;;;6.70;97.30;;;;;;6337594;28;20042;-79
2020/12/30 13:17:50;;;;;;;10.02;6.72;;;6.70;97.80;;;;;;6337085;28;20461;-77
2020/12/30 13:20:51;;;;;;;6.75;5.60;;;6.70;89.70;;;;;;6354092;27;20027;-78
2020/12/30 13:23:51;;;;;;;3.72;2.58;;;6.70;90.50;;;;;;6354749;27;20106;-77
2020/12/30 13:26:52;;;;;;;3.65;2.90;;;7.00;91.10;;;;;;6358972;27;20027;-77
2020/12/30 13:29:52;;;;;;;3.70;3.20;;;6.80;90.20;;;;;;6359364;27;20364;-77
2020/12/30 13:32:53;;;;;;;2.10;2.00;;;6.60;90.10;;;;;;6341911;27;20461;-77
2020/12/30 13:35:53;;;;;;;2.35;2.15;;;6.50;90.20;;;;;;6358919;27;20399;-77
2020/12/30 13:38:57;;;;;;;2.13;1.90;;;6.60;77.30;;;;;;6359035;27;20023;-78
2020/12/30 13:41:57;;;;;;;2.25;2.05;;;6.70;75.10;;;;;;6359130;27;20027;-77
2020/12/30 13:44:58;;;;;;;3.38;2.47;;;6.90;77.60;;;;;;6341640;27;20027;-78
2020/12/30 13:47:59;;;;;;;2.22;2.00;;;6.70;78.30;;;;;;6341497;27;20027;-79
2020/12/30 13:50:59;;;;;;;2.50;2.30;;;6.50;77.70;;;;;;6341941;27;20397;-77
2020/12/30 13:54:03;;;;;;;3.63;2.92;;;6.50;77.90;;;;;;6358233;27;20031;-77
2020/12/30 13:57:04;;;;;;;3.15;2.50;;;6.70;78.50;;;;;;6358647;27;20019;-79
2020/12/30 14:00:04;;;;;;;2.20;2.00;;;6.40;78.50;;;;;;6376499;27;20104;-78
2020/12/30 14:03:05;;;;;;;2.95;2.30;;;6.50;80.00;;;;;;6358359;27;20024;-77
2020/12/30 14:06:05;;;;;;;2.40;2.20;;;6.40;80.30;;;;;;6341069;27;20023;-80
2020/12/30 14:09:06;;;;;;;4.20;2.00;;;6.40;79.80;;;;;;6358316;27;20058;-77
2020/12/30 14:12:08;;;;;;;3.97;2.10;;;6.40;79.70;;;;;;6358075;27;20080;-77
2020/12/30 14:15:09;;;;;;;2.03;1.92;;;6.70;79.90;;;;;;6357904;27;20076;-78
2020/12/30 14:18:09;;;;;;;2.83;2.50;;;6.30;79.40;;;;;;6340685;27;20023;-77
2020/12/30 14:21:10;;;;;;;2.70;2.42;;;6.30;80.00;;;;;;6357740;27;20031;-77
2020/12/30 14:24:10;;;;;;;3.20;2.58;;;6.20;79.10;;;;;;6375960;27;20023;-77
2020/12/30 14:27:11;;;;;;;3.75;3.35;;;6.30;80.40;;;;;;6375836;27;20019;-77
2020/12/30 14:30:12;;;;;;;3.05;2.75;;;6.10;80.00;;;;;;6375854;27;20020;-79
2020/12/30 14:33:12;;;;;;;4.63;2.88;;;6.20;80.90;;;;;;6357697;27;20106;-78
2020/12/30 14:36:19;;;;;;;3.08;2.22;;;6.00;81.10;;;;;;6374739;27;20033;-77
2020/12/30 14:39:20;;;;;;;3.88;2.20;;;6.30;79.70;;;;;;6375579;27;20011;-77
2020/12/30 14:42:20;;;;;;;3.25;2.65;;;5.90;81.00;;;;;;6375269;27;20027;-78
2020/12/30 14:45:21;;;;;;;3.05;2.33;;;6.00;81.60;;;;;;6375399;27;20027;-77
2020/12/30 14:48:21;;;;;;;2.28;2.08;;;6.30;82.40;;;;;;6375308;27;20027;-77
2020/12/30 14:51:22;;;;;;;2.50;2.03;;;6.00;81.50;;;;;;6375194;27;20051;-77
2020/12/30 14:54:23;;;;;;;2.83;2.50;;;5.50;93.90;;;;;;6375504;27;20028;-77
2020/12/30 14:57:23;;;;;;;1.77;1.67;;;5.70;94.20;;;;;;6375863;27;20019;-79
2020/12/30 15:00:24;;;;;;;2.97;2.40;;;5.90;82.20;;;;;;6375212;27;20036;-77
2020/12/30 15:03:24;;;;;;;3.75;2.80;;;5.90;82.30;;;;;;6356737;27;20030;-77
2020/12/30 15:06:28;;;;;;;4.38;3.30;;;5.50;81.30;;;;;;6375244;27;20024;-77
2020/12/30 15:09:29;;;;;;;2.80;2.40;;;5.90;83.50;;;;;;6374907;27;20374;-76
2020/12/30 15:12:29;;;;;;;2.40;2.20;;;6.10;82.90;;;;;;6375077;27;20023;-80
2020/12/30 15:15:30;;;;;;;3.20;2.75;;;6.20;80.90;;;;;;6375008;27;20031;-80
2020/12/30 15:18:30;;;;;;;2.53;2.20;;;5.80;80.10;;;;;;6374898;27;20019;-80
2020/12/30 15:21:31;;;;;;;3.22;2.45;;;5.40;80.50;;;;;;6374717;27;20023;-79
2020/12/30 15:24:31;;;;;;;3.50;2.63;;;5.60;80.80;;;;;;6356368;27;20030;-79
2020/12/30 15:27:32;;;;;;;2.20;2.00;;;5.40;81.60;;;;;;6374606;27;20026;-78
2020/12/30 15:30:33;;;;;;;2.50;2.30;;;5.40;82.30;;;;;;6356236;27;20102;-78
2020/12/30 15:33:33;;;;;;;4.95;2.97;;;5.10;82.00;;;;;;6355943;27;20497;-79
2020/12/30 15:36:34;;;;;;;2.55;2.05;;;5.40;83.40;;;;;;6374506;27;20075;-79
2020/12/30 15:39:35;;;;;;;3.65;2.67;;;5.90;83.80;;;;;;6374941;27;20472;-79
2020/12/30 15:42:35;;;;;;;2.88;2.17;;;5.40;83.60;;;;;;6373936;27;20027;-79
2020/12/30 15:45:54;;;;;;;7.03;3.42;;;5.00;94.70;;;;;;6373409;27;20074;-78
2020/12/30 15:48:54;;;;;;;4.60;3.33;;;5.50;83.30;;;;;;6373625;27;20023;-79
2020/12/30 15:51:55;;;;;;;2.28;1.70;;;5.10;82.00;;;;;;6374150;27;20027;-79
2020/12/30 15:54:56;;;;;;;1.85;1.75;;;5.60;80.50;;;;;;6373617;27;20453;-79
2020/12/30 15:57:56;;;;;;;5.50;3.90;;;5.40;80.20;;;;;;6373922;27;20433;-79
2020/12/30 16:00:57;;;;;;;3.25;2.95;;;5.30;79.20;;;;;;6373560;27;20130;-79